Assaria, Kansas
Current Conditions -  °F | °C
As of 7:53 AM on Wednesday 22 Oct 2014 (Local Time) from KSLN Reporting Station
Clear Clear  
Wind Chill: 58°   Ceiling: Unl
Heat Index: 58°   Visibility: 7mi
Dew Point: 55°   Wind: 10mph
Humidity: 90%   Direction: 150°SSE
Pressure: 30.07"   Gusts: NA
Location:  38.68°N, 97.6°W
Report Text: KSLN 221253Z 15009KT 7SM CLR 14/13 A3007 RMK AO2 SLP177 T01440128
Loading
Personal Weather Stations






























Interactive Weather Map New forecast layout! Learn more

10-Day Weather Forecast

Advertisements
Track Severe Weather on mobile